sensor_id;sensor_type;location;lat;lon;timestamp;temperature;humidity
24217;DHT22;12356;49.386;8.688;2022-07-29T00:01:17;24.10;45.00
24217;DHT22;12356;49.386;8.688;2022-07-29T00:03:48;24.10;45.80
24217;DHT22;12356;49.386;8.688;2022-07-29T00:06:18;24.00;46.00
24217;DHT22;12356;49.386;8.688;2022-07-29T00:08:51;24.00;46.50
24217;DHT22;12356;49.386;8.688;2022-07-29T00:11:21;23.90;46.90
24217;DHT22;12356;49.386;8.688;2022-07-29T00:13:52;23.90;47.10
24217;DHT22;12356;49.386;8.688;2022-07-29T00:16:22;23.90;47.70
24217;DHT22;12356;49.386;8.688;2022-07-29T00:18:53;23.90;47.80
24217;DHT22;12356;49.386;8.688;2022-07-29T00:21:24;23.80;48.30
24217;DHT22;12356;49.386;8.688;2022-07-29T00:23:54;23.80;48.60
24217;DHT22;12356;49.386;8.688;2022-07-29T00:26:25;23.70;49.20
24217;DHT22;12356;49.386;8.688;2022-07-29T00:29:03;23.70;49.90
24217;DHT22;12356;49.386;8.688;2022-07-29T00:31:34;23.70;50.00
24217;DHT22;12356;49.386;8.688;2022-07-29T00:34:04;23.70;50.00
24217;DHT22;12356;49.386;8.688;2022-07-29T00:36:36;23.70;51.10
24217;DHT22;12356;49.386;8.688;2022-07-29T00:39:07;23.60;51.40
24217;DHT22;12356;49.386;8.688;2022-07-29T00:41:37;23.70;51.00
24217;DHT22;12356;49.386;8.688;2022-07-29T00:44:08;23.60;51.30
24217;DHT22;12356;49.386;8.688;2022-07-29T00:46:39;23.60;51.60
24217;DHT22;12356;49.386;8.688;2022-07-29T00:49:09;23.60;52.00
24217;DHT22;12356;49.386;8.688;2022-07-29T00:51:40;23.60;52.00
24217;DHT22;12356;49.386;8.688;2022-07-29T00:54:12;23.60;52.90
24217;DHT22;12356;49.386;8.688;2022-07-29T00:56:43;23.60;52.40
24217;DHT22;12356;49.386;8.688;2022-07-29T00:59:14;23.60;52.70
24217;DHT22;12356;49.386;8.688;2022-07-29T01:01:44;23.60;53.10
24217;DHT22;12356;49.386;8.688;2022-07-29T01:04:15;23.60;53.30
24217;DHT22;12356;49.386;8.688;2022-07-29T01:06:47;23.60;53.40
24217;DHT22;12356;49.386;8.688;2022-07-29T01:09:18;23.50;54.00
24217;DHT22;12356;49.386;8.688;2022-07-29T01:11:50;23.50;54.30
24217;DHT22;12356;49.386;8.688;2022-07-29T01:14:21;23.60;53.60
24217;DHT22;12356;49.386;8.688;2022-07-29T01:16:56;23.60;53.90
24217;DHT22;12356;49.386;8.688;2022-07-29T01:25:32;23.50;54.00
24217;DHT22;12356;49.386;8.688;2022-07-29T01:28:34;23.50;54.00
24217;DHT22;12356;49.386;8.688;2022-07-29T01:31:07;23.50;54.30
24217;DHT22;12356;49.386;8.688;2022-07-29T01:33:43;23.50;54.50
24217;DHT22;12356;49.386;8.688;2022-07-29T01:36:28;23.50;54.40
24217;DHT22;12356;49.386;8.688;2022-07-29T01:39:14;23.40;54.40
24217;DHT22;12356;49.386;8.688;2022-07-29T01:41:57;23.40;54.60
24217;DHT22;12356;49.386;8.688;2022-07-29T01:44:33;23.40;54.50
24217;DHT22;12356;49.386;8.688;2022-07-29T01:47:10;23.40;54.50
24217;DHT22;12356;49.386;8.688;2022-07-29T01:49:47;23.40;54.40
24217;DHT22;12356;49.386;8.688;2022-07-29T01:52:26;23.40;55.20
24217;DHT22;12356;49.386;8.688;2022-07-29T01:55:07;23.30;54.70
24217;DHT22;12356;49.386;8.688;2022-07-29T01:57:40;23.30;54.80
24217;DHT22;12356;49.386;8.688;2022-07-29T02:00:12;23.30;54.90
24217;DHT22;12356;49.386;8.688;2022-07-29T02:02:46;23.30;54.90
24217;DHT22;12356;49.386;8.688;2022-07-29T02:05:18;23.30;55.30
24217;DHT22;12356;49.386;8.688;2022-07-29T02:07:51;23.30;55.30
24217;DHT22;12356;49.386;8.688;2022-07-29T02:10:27;23.20;55.30
24217;DHT22;12356;49.386;8.688;2022-07-29T02:13:01;23.20;55.90
24217;DHT22;12356;49.386;8.688;2022-07-29T02:15:33;23.20;55.90
24217;DHT22;12356;49.386;8.688;2022-07-29T02:18:09;23.20;55.70
24217;DHT22;12356;49.386;8.688;2022-07-29T02:20:50;23.20;55.90
24217;DHT22;12356;49.386;8.688;2022-07-29T02:23:23;23.20;56.40
24217;DHT22;12356;49.386;8.688;2022-07-29T02:25:56;23.10;56.30
24217;DHT22;12356;49.386;8.688;2022-07-29T02:28:29;23.10;56.00
24217;DHT22;12356;49.386;8.688;2022-07-29T02:31:02;23.10;56.40
24217;DHT22;12356;49.386;8.688;2022-07-29T02:33:34;23.10;56.50
24217;DHT22;12356;49.386;8.688;2022-07-29T02:36:05;23.10;56.50
24217;DHT22;12356;49.386;8.688;2022-07-29T02:38:36;23.00;57.10
24217;DHT22;12356;49.386;8.688;2022-07-29T02:41:28;23.00;57.30
24217;DHT22;12356;49.386;8.688;2022-07-29T02:44:13;23.00;57.90
24217;DHT22;12356;49.386;8.688;2022-07-29T02:46:52;22.90;58.00
24217;DHT22;12356;49.386;8.688;2022-07-29T02:49:28;22.90;58.30
24217;DHT22;12356;49.386;8.688;2022-07-29T02:52:06;23.00;58.70
24217;DHT22;12356;49.386;8.688;2022-07-29T02:54:40;22.90;58.40
24217;DHT22;12356;49.386;8.688;2022-07-29T02:57:22;23.00;58.70
24217;DHT22;12356;49.386;8.688;2022-07-29T02:59:54;22.90;58.80
24217;DHT22;12356;49.386;8.688;2022-07-29T03:02:28;22.90;59.20
24217;DHT22;12356;49.386;8.688;2022-07-29T03:05:02;22.90;59.20
24217;DHT22;12356;49.386;8.688;2022-07-29T03:07:34;22.90;59.20
24217;DHT22;12356;49.386;8.688;2022-07-29T03:10:06;23.00;59.20
24217;DHT22;12356;49.386;8.688;2022-07-29T03:12:39;23.00;59.20
24217;DHT22;12356;49.386;8.688;2022-07-29T03:15:11;23.00;58.70
24217;DHT22;12356;49.386;8.688;2022-07-29T03:17:42;23.00;59.50
24217;DHT22;12356;49.386;8.688;2022-07-29T03:20:13;23.00;59.00
24217;DHT22;12356;49.386;8.688;2022-07-29T03:22:45;23.00;58.90
24217;DHT22;12356;49.386;8.688;2022-07-29T03:27:57;23.00;59.10
24217;DHT22;12356;49.386;8.688;2022-07-29T03:30:27;22.90;59.20
24217;DHT22;12356;49.386;8.688;2022-07-29T03:33:00;22.90;59.10
24217;DHT22;12356;49.386;8.688;2022-07-29T03:35:31;22.80;59.20
24217;DHT22;12356;49.386;8.688;2022-07-29T03:38:02;22.80;59.30
24217;DHT22;12356;49.386;8.688;2022-07-29T03:40:46;22.80;59.30
24217;DHT22;12356;49.386;8.688;2022-07-29T03:43:20;22.80;59.30
24217;DHT22;12356;49.386;8.688;2022-07-29T03:45:53;22.80;59.10
24217;DHT22;12356;49.386;8.688;2022-07-29T03:48:25;22.80;59.00
24217;DHT22;12356;49.386;8.688;2022-07-29T03:50:56;22.80;59.00
24217;DHT22;12356;49.386;8.688;2022-07-29T03:53:27;22.80;59.00
24217;DHT22;12356;49.386;8.688;2022-07-29T03:55:59;22.80;58.70
24217;DHT22;12356;49.386;8.688;2022-07-29T03:58:32;22.80;58.60
24217;DHT22;12356;49.386;8.688;2022-07-29T04:01:03;22.80;58.50
24217;DHT22;12356;49.386;8.688;2022-07-29T04:03:34;22.80;58.90
24217;DHT22;12356;49.386;8.688;2022-07-29T04:06:06;22.70;59.10
24217;DHT22;12356;49.386;8.688;2022-07-29T04:08:37;22.70;59.10
24217;DHT22;12356;49.386;8.688;2022-07-29T04:11:08;22.70;59.10
24217;DHT22;12356;49.386;8.688;2022-07-29T04:13:38;22.70;59.30
24217;DHT22;12356;49.386;8.688;2022-07-29T04:16:09;22.70;59.30
24217;DHT22;12356;49.386;8.688;2022-07-29T04:18:40;22.80;59.20
24217;DHT22;12356;49.386;8.688;2022-07-29T04:21:10;22.70;59.20
24217;DHT22;12356;49.386;8.688;2022-07-29T04:23:41;22.70;59.20
24217;DHT22;12356;49.386;8.688;2022-07-29T04:26:12;22.70;59.30
24217;DHT22;12356;49.386;8.688;2022-07-29T04:28:42;22.70;59.40
24217;DHT22;12356;49.386;8.688;2022-07-29T04:31:13;22.70;59.40
24217;DHT22;12356;49.386;8.688;2022-07-29T04:33:44;22.70;59.40
24217;DHT22;12356;49.386;8.688;2022-07-29T04:36:14;22.70;59.40
24217;DHT22;12356;49.386;8.688;2022-07-29T04:38:45;22.70;59.70
24217;DHT22;12356;49.386;8.688;2022-07-29T04:41:16;22.70;59.70
24217;DHT22;12356;49.386;8.688;2022-07-29T04:43:46;22.60;59.40
24217;DHT22;12356;49.386;8.688;2022-07-29T04:46:17;22.70;59.80
24217;DHT22;12356;49.386;8.688;2022-07-29T04:48:48;22.70;59.00
24217;DHT22;12356;49.386;8.688;2022-07-29T04:51:19;22.70;59.20
24217;DHT22;12356;49.386;8.688;2022-07-29T04:53:49;22.60;59.00
24217;DHT22;12356;49.386;8.688;2022-07-29T04:56:20;22.60;59.00
24217;DHT22;12356;49.386;8.688;2022-07-29T04:58:51;22.60;58.30
24217;DHT22;12356;49.386;8.688;2022-07-29T05:01:21;22.60;57.10
24217;DHT22;12356;49.386;8.688;2022-07-29T05:03:52;22.60;56.90
24217;DHT22;12356;49.386;8.688;2022-07-29T05:06:22;22.50;56.80
24217;DHT22;12356;49.386;8.688;2022-07-29T05:08:53;22.50;56.90
24217;DHT22;12356;49.386;8.688;2022-07-29T05:11:24;22.40;55.70
24217;DHT22;12356;49.386;8.688;2022-07-29T05:13:54;22.40;56.00
24217;DHT22;12356;49.386;8.688;2022-07-29T05:16:25;22.30;56.60
24217;DHT22;12356;49.386;8.688;2022-07-29T05:18:56;22.30;56.90
24217;DHT22;12356;49.386;8.688;2022-07-29T05:21:26;22.30;57.80
24217;DHT22;12356;49.386;8.688;2022-07-29T05:23:57;22.20;57.80
24217;DHT22;12356;49.386;8.688;2022-07-29T05:26:27;22.20;57.90
24217;DHT22;12356;49.386;8.688;2022-07-29T05:28:58;22.20;58.30
24217;DHT22;12356;49.386;8.688;2022-07-29T05:31:29;22.20;59.10
24217;DHT22;12356;49.386;8.688;2022-07-29T05:34:00;22.30;59.90
24217;DHT22;12356;49.386;8.688;2022-07-29T05:36:30;22.30;59.90
24217;DHT22;12356;49.386;8.688;2022-07-29T05:39:01;22.30;60.20
24217;DHT22;12356;49.386;8.688;2022-07-29T05:41:32;22.30;60.10
24217;DHT22;12356;49.386;8.688;2022-07-29T05:44:03;22.40;59.90
24217;DHT22;12356;49.386;8.688;2022-07-29T05:46:33;22.40;59.70
24217;DHT22;12356;49.386;8.688;2022-07-29T05:49:04;22.40;59.30
24217;DHT22;12356;49.386;8.688;2022-07-29T05:51:36;22.40;58.80
24217;DHT22;12356;49.386;8.688;2022-07-29T05:54:07;22.40;58.10
24217;DHT22;12356;49.386;8.688;2022-07-29T05:56:37;22.40;57.50
24217;DHT22;12356;49.386;8.688;2022-07-29T05:59:08;22.50;56.80
24217;DHT22;12356;49.386;8.688;2022-07-29T06:01:39;22.50;56.70
24217;DHT22;12356;49.386;8.688;2022-07-29T06:04:10;22.60;56.30
24217;DHT22;12356;49.386;8.688;2022-07-29T06:06:40;22.60;56.10
24217;DHT22;12356;49.386;8.688;2022-07-29T06:09:11;22.60;55.80
24217;DHT22;12356;49.386;8.688;2022-07-29T06:11:41;22.70;56.30
24217;DHT22;12356;49.386;8.688;2022-07-29T06:14:12;22.70;56.00
24217;DHT22;12356;49.386;8.688;2022-07-29T06:16:43;22.70;55.60
24217;DHT22;12356;49.386;8.688;2022-07-29T06:19:13;22.80;55.60
24217;DHT22;12356;49.386;8.688;2022-07-29T06:21:45;22.80;55.60
24217;DHT22;12356;49.386;8.688;2022-07-29T06:24:16;22.80;55.90
24217;DHT22;12356;49.386;8.688;2022-07-29T06:26:46;22.90;56.60
24217;DHT22;12356;49.386;8.688;2022-07-29T06:29:17;22.90;56.40
24217;DHT22;12356;49.386;8.688;2022-07-29T06:31:48;23.00;56.60
24217;DHT22;12356;49.386;8.688;2022-07-29T06:34:18;23.00;56.50
24217;DHT22;12356;49.386;8.688;2022-07-29T06:36:49;23.00;56.50
24217;DHT22;12356;49.386;8.688;2022-07-29T06:39:20;23.10;55.90
24217;DHT22;12356;49.386;8.688;2022-07-29T06:41:51;23.10;55.90
24217;DHT22;12356;49.386;8.688;2022-07-29T06:44:22;23.10;56.20
24217;DHT22;12356;49.386;8.688;2022-07-29T06:46:52;23.20;56.40
24217;DHT22;12356;49.386;8.688;2022-07-29T06:49:25;23.20;56.60
24217;DHT22;12356;49.386;8.688;2022-07-29T06:51:56;23.20;56.50
24217;DHT22;12356;49.386;8.688;2022-07-29T06:54:27;23.30;56.60
24217;DHT22;12356;49.386;8.688;2022-07-29T06:56:57;23.30;56.90
24217;DHT22;12356;49.386;8.688;2022-07-29T06:59:29;23.30;57.30
24217;DHT22;12356;49.386;8.688;2022-07-29T07:02:00;23.30;56.80
24217;DHT22;12356;49.386;8.688;2022-07-29T07:04:30;23.30;57.30
24217;DHT22;12356;49.386;8.688;2022-07-29T07:07:01;23.30;57.50
24217;DHT22;12356;49.386;8.688;2022-07-29T07:09:31;23.30;57.60
24217;DHT22;12356;49.386;8.688;2022-07-29T07:12:03;23.30;57.30
24217;DHT22;12356;49.386;8.688;2022-07-29T07:14:33;23.30;57.10
24217;DHT22;12356;49.386;8.688;2022-07-29T07:17:04;23.40;56.80
24217;DHT22;12356;49.386;8.688;2022-07-29T07:19:37;23.40;56.50
24217;DHT22;12356;49.386;8.688;2022-07-29T07:22:07;23.40;56.60
24217;DHT22;12356;49.386;8.688;2022-07-29T07:24:38;23.40;56.30
24217;DHT22;12356;49.386;8.688;2022-07-29T07:27:08;23.50;56.40
24217;DHT22;12356;49.386;8.688;2022-07-29T07:29:39;23.50;55.70
24217;DHT22;12356;49.386;8.688;2022-07-29T07:32:11;23.50;55.50
24217;DHT22;12356;49.386;8.688;2022-07-29T07:34:43;23.60;55.90
24217;DHT22;12356;49.386;8.688;2022-07-29T07:37:14;23.60;56.30
24217;DHT22;12356;49.386;8.688;2022-07-29T07:39:44;23.60;56.00
24217;DHT22;12356;49.386;8.688;2022-07-29T07:42:15;23.60;56.20
24217;DHT22;12356;49.386;8.688;2022-07-29T07:44:46;23.60;56.50
24217;DHT22;12356;49.386;8.688;2022-07-29T07:47:18;23.60;56.60
24217;DHT22;12356;49.386;8.688;2022-07-29T07:49:53;23.60;56.90
24217;DHT22;12356;49.386;8.688;2022-07-29T07:52:24;23.70;56.80
24217;DHT22;12356;49.386;8.688;2022-07-29T07:54:55;23.70;56.80
24217;DHT22;12356;49.386;8.688;2022-07-29T07:57:25;23.70;56.70
24217;DHT22;12356;49.386;8.688;2022-07-29T07:59:56;23.80;56.90
24217;DHT22;12356;49.386;8.688;2022-07-29T08:02:27;23.80;56.60
24217;DHT22;12356;49.386;8.688;2022-07-29T08:04:57;23.80;56.50
24217;DHT22;12356;49.386;8.688;2022-07-29T08:07:29;23.80;56.90
24217;DHT22;12356;49.386;8.688;2022-07-29T08:10:00;23.80;56.70
24217;DHT22;12356;49.386;8.688;2022-07-29T08:12:31;23.80;56.60
24217;DHT22;12356;49.386;8.688;2022-07-29T08:15:02;23.90;57.20
24217;DHT22;12356;49.386;8.688;2022-07-29T08:17:32;24.00;56.90
24217;DHT22;12356;49.386;8.688;2022-07-29T08:20:04;24.10;56.00
24217;DHT22;12356;49.386;8.688;2022-07-29T08:22:35;24.10;55.60
24217;DHT22;12356;49.386;8.688;2022-07-29T08:25:05;24.20;55.90
24217;DHT22;12356;49.386;8.688;2022-07-29T08:27:36;24.20;55.10
24217;DHT22;12356;49.386;8.688;2022-07-29T08:30:07;24.30;54.70
24217;DHT22;12356;49.386;8.688;2022-07-29T08:32:38;24.30;54.20
24217;DHT22;12356;49.386;8.688;2022-07-29T08:35:09;24.30;54.10
24217;DHT22;12356;49.386;8.688;2022-07-29T08:37:39;24.40;54.60
24217;DHT22;12356;49.386;8.688;2022-07-29T08:40:10;24.40;53.70
24217;DHT22;12356;49.386;8.688;2022-07-29T08:42:41;24.40;53.70
24217;DHT22;12356;49.386;8.688;2022-07-29T08:45:12;24.40;54.10
24217;DHT22;12356;49.386;8.688;2022-07-29T08:47:44;24.40;54.20
24217;DHT22;12356;49.386;8.688;2022-07-29T08:50:15;24.30;54.00
24217;DHT22;12356;49.386;8.688;2022-07-29T08:52:46;24.40;54.90
24217;DHT22;12356;49.386;8.688;2022-07-29T08:55:17;24.40;54.40
24217;DHT22;12356;49.386;8.688;2022-07-29T08:57:48;24.50;54.70
24217;DHT22;12356;49.386;8.688;2022-07-29T09:00:19;24.50;54.80
24217;DHT22;12356;49.386;8.688;2022-07-29T09:02:56;24.60;54.60
24217;DHT22;12356;49.386;8.688;2022-07-29T09:05:27;24.80;53.70
24217;DHT22;12356;49.386;8.688;2022-07-29T09:07:59;24.80;53.70
24217;DHT22;12356;49.386;8.688;2022-07-29T09:10:31;24.90;53.30
24217;DHT22;12356;49.386;8.688;2022-07-29T09:13:01;24.90;53.10
24217;DHT22;12356;49.386;8.688;2022-07-29T09:15:32;25.00;53.50
24217;DHT22;12356;49.386;8.688;2022-07-29T09:18:03;25.00;53.50
24217;DHT22;12356;49.386;8.688;2022-07-29T09:20:33;25.00;54.00
24217;DHT22;12356;49.386;8.688;2022-07-29T09:23:22;25.00;54.30
24217;DHT22;12356;49.386;8.688;2022-07-29T09:25:53;25.10;53.60
24217;DHT22;12356;49.386;8.688;2022-07-29T09:28:24;25.00;53.50
24217;DHT22;12356;49.386;8.688;2022-07-29T09:30:56;25.00;53.50
24217;DHT22;12356;49.386;8.688;2022-07-29T09:33:32;25.00;53.70
24217;DHT22;12356;49.386;8.688;2022-07-29T09:36:07;25.00;53.90
24217;DHT22;12356;49.386;8.688;2022-07-29T09:38:38;25.00;54.80
24217;DHT22;12356;49.386;8.688;2022-07-29T09:41:09;25.00;54.00
24217;DHT22;12356;49.386;8.688;2022-07-29T09:43:40;25.00;54.30
24217;DHT22;12356;49.386;8.688;2022-07-29T09:46:24;25.00;54.80
24217;DHT22;12356;49.386;8.688;2022-07-29T09:49:13;25.10;54.60
24217;DHT22;12356;49.386;8.688;2022-07-29T09:51:45;25.10;56.10
24217;DHT22;12356;49.386;8.688;2022-07-29T09:54:25;25.10;55.10
24217;DHT22;12356;49.386;8.688;2022-07-29T09:56:56;25.10;55.10
24217;DHT22;12356;49.386;8.688;2022-07-29T09:59:27;25.10;55.30
24217;DHT22;12356;49.386;8.688;2022-07-29T10:01:58;25.20;55.20
24217;DHT22;12356;49.386;8.688;2022-07-29T10:04:40;25.20;53.60
24217;DHT22;12356;49.386;8.688;2022-07-29T10:07:11;25.20;53.20
24217;DHT22;12356;49.386;8.688;2022-07-29T10:09:52;25.30;52.80
24217;DHT22;12356;49.386;8.688;2022-07-29T10:12:23;25.30;52.60
24217;DHT22;12356;49.386;8.688;2022-07-29T10:14:54;25.40;52.90
24217;DHT22;12356;49.386;8.688;2022-07-29T10:17:25;25.40;52.60
24217;DHT22;12356;49.386;8.688;2022-07-29T10:19:56;25.40;51.40
24217;DHT22;12356;49.386;8.688;2022-07-29T10:22:27;25.50;52.80
24217;DHT22;12356;49.386;8.688;2022-07-29T10:24:58;25.40;52.40
24217;DHT22;12356;49.386;8.688;2022-07-29T10:27:28;25.50;52.00
24217;DHT22;12356;49.386;8.688;2022-07-29T10:29:59;25.50;49.80
24217;DHT22;12356;49.386;8.688;2022-07-29T10:38:53;25.70;48.70
24217;DHT22;12356;49.386;8.688;2022-07-29T10:44:34;25.70;49.80
24217;DHT22;12356;49.386;8.688;2022-07-29T10:47:05;25.80;47.50
24217;DHT22;12356;49.386;8.688;2022-07-29T10:49:36;25.80;47.30
24217;DHT22;12356;49.386;8.688;2022-07-29T10:52:08;25.80;47.40
24217;DHT22;12356;49.386;8.688;2022-07-29T10:54:43;25.80;47.20
24217;DHT22;12356;49.386;8.688;2022-07-29T11:02:42;25.80;48.60
24217;DHT22;12356;49.386;8.688;2022-07-29T11:05:15;25.90;47.40
24217;DHT22;12356;49.386;8.688;2022-07-29T11:08:22;25.90;46.40
24217;DHT22;12356;49.386;8.688;2022-07-29T11:13:52;26.10;46.20
24217;DHT22;12356;49.386;8.688;2022-07-29T11:16:25;26.10;46.10
24217;DHT22;12356;49.386;8.688;2022-07-29T11:19:22;26.20;45.40
24217;DHT22;12356;49.386;8.688;2022-07-29T11:21:53;26.30;45.50
24217;DHT22;12356;49.386;8.688;2022-07-29T11:24:28;26.30;46.30
24217;DHT22;12356;49.386;8.688;2022-07-29T11:27:12;26.30;45.20
24217;DHT22;12356;49.386;8.688;2022-07-29T11:29:50;26.30;44.80
24217;DHT22;12356;49.386;8.688;2022-07-29T11:32:24;26.40;44.40
24217;DHT22;12356;49.386;8.688;2022-07-29T11:37:42;26.40;45.20
24217;DHT22;12356;49.386;8.688;2022-07-29T11:40:14;26.50;44.20
24217;DHT22;12356;49.386;8.688;2022-07-29T11:42:46;26.50;44.90
24217;DHT22;12356;49.386;8.688;2022-07-29T11:45:20;26.70;43.30
24217;DHT22;12356;49.386;8.688;2022-07-29T11:47:53;26.70;43.40
24217;DHT22;12356;49.386;8.688;2022-07-29T11:53:01;26.70;42.90
24217;DHT22;12356;49.386;8.688;2022-07-29T11:55:36;26.80;42.20
24217;DHT22;12356;49.386;8.688;2022-07-29T11:58:07;26.80;41.60
24217;DHT22;12356;49.386;8.688;2022-07-29T12:00:40;26.80;41.60
24217;DHT22;12356;49.386;8.688;2022-07-29T12:03:11;26.80;41.80
24217;DHT22;12356;49.386;8.688;2022-07-29T12:05:44;26.80;42.00
24217;DHT22;12356;49.386;8.688;2022-07-29T12:08:18;26.80;42.10
24217;DHT22;12356;49.386;8.688;2022-07-29T12:10:51;26.90;43.00
24217;DHT22;12356;49.386;8.688;2022-07-29T12:13:22;26.90;41.20
24217;DHT22;12356;49.386;8.688;2022-07-29T12:15:55;26.90;40.40
24217;DHT22;12356;49.386;8.688;2022-07-29T12:18:27;27.10;41.40
24217;DHT22;12356;49.386;8.688;2022-07-29T12:20:59;27.20;40.00
24217;DHT22;12356;49.386;8.688;2022-07-29T12:23:33;27.20;39.90
24217;DHT22;12356;49.386;8.688;2022-07-29T12:26:05;27.20;40.70
24217;DHT22;12356;49.386;8.688;2022-07-29T12:28:39;27.20;39.90
24217;DHT22;12356;49.386;8.688;2022-07-29T12:31:14;27.20;39.40
24217;DHT22;12356;49.386;8.688;2022-07-29T12:33:52;27.20;40.00
24217;DHT22;12356;49.386;8.688;2022-07-29T12:36:22;27.30;39.30
24217;DHT22;12356;49.386;8.688;2022-07-29T12:38:53;27.40;38.00
24217;DHT22;12356;49.386;8.688;2022-07-29T12:41:24;27.40;37.50
24217;DHT22;12356;49.386;8.688;2022-07-29T12:43:55;27.40;38.10
24217;DHT22;12356;49.386;8.688;2022-07-29T12:46:26;27.40;37.80
24217;DHT22;12356;49.386;8.688;2022-07-29T12:48:56;27.40;39.20
24217;DHT22;12356;49.386;8.688;2022-07-29T12:51:39;27.40;39.10
24217;DHT22;12356;49.386;8.688;2022-07-29T12:54:12;27.40;37.80
24217;DHT22;12356;49.386;8.688;2022-07-29T12:56:46;27.30;36.40
24217;DHT22;12356;49.386;8.688;2022-07-29T12:59:21;27.30;37.80
24217;DHT22;12356;49.386;8.688;2022-07-29T13:01:52;27.20;37.60
24217;DHT22;12356;49.386;8.688;2022-07-29T13:04:31;27.20;37.60
24217;DHT22;12356;49.386;8.688;2022-07-29T13:07:05;27.20;38.50
24217;DHT22;12356;49.386;8.688;2022-07-29T13:09:39;27.20;38.20
24217;DHT22;12356;49.386;8.688;2022-07-29T13:12:12;27.20;36.90
24217;DHT22;12356;49.386;8.688;2022-07-29T13:14:47;27.20;37.00
24217;DHT22;12356;49.386;8.688;2022-07-29T13:17:21;27.10;37.20
24217;DHT22;12356;49.386;8.688;2022-07-29T13:20:06;27.10;37.00
24217;DHT22;12356;49.386;8.688;2022-07-29T13:22:41;27.20;36.80
24217;DHT22;12356;49.386;8.688;2022-07-29T13:25:12;27.30;37.80
24217;DHT22;12356;49.386;8.688;2022-07-29T13:27:43;27.30;37.20
24217;DHT22;12356;49.386;8.688;2022-07-29T13:30:16;27.40;36.10
24217;DHT22;12356;49.386;8.688;2022-07-29T13:32:47;27.30;36.70
24217;DHT22;12356;49.386;8.688;2022-07-29T13:35:18;27.30;36.80
24217;DHT22;12356;49.386;8.688;2022-07-29T13:37:49;27.30;36.80
24217;DHT22;12356;49.386;8.688;2022-07-29T13:40:19;27.20;38.40
24217;DHT22;12356;49.386;8.688;2022-07-29T13:42:50;27.10;38.70
24217;DHT22;12356;49.386;8.688;2022-07-29T13:45:21;27.10;38.30
24217;DHT22;12356;49.386;8.688;2022-07-29T13:47:51;27.00;36.50
24217;DHT22;12356;49.386;8.688;2022-07-29T13:50:22;27.00;36.30
24217;DHT22;12356;49.386;8.688;2022-07-29T13:52:53;27.00;36.80
24217;DHT22;12356;49.386;8.688;2022-07-29T13:55:24;26.90;39.10
24217;DHT22;12356;49.386;8.688;2022-07-29T13:57:54;26.90;37.40
24217;DHT22;12356;49.386;8.688;2022-07-29T14:00:25;26.90;36.80
24217;DHT22;12356;49.386;8.688;2022-07-29T14:02:56;26.90;36.90
24217;DHT22;12356;49.386;8.688;2022-07-29T14:05:27;26.90;38.30
24217;DHT22;12356;49.386;8.688;2022-07-29T14:07:57;26.80;38.90
24217;DHT22;12356;49.386;8.688;2022-07-29T14:10:28;26.80;40.80
24217;DHT22;12356;49.386;8.688;2022-07-29T14:12:59;26.80;40.80
24217;DHT22;12356;49.386;8.688;2022-07-29T14:15:29;26.80;42.00
24217;DHT22;12356;49.386;8.688;2022-07-29T14:18:01;26.80;41.00
24217;DHT22;12356;49.386;8.688;2022-07-29T14:20:31;26.80;42.80
24217;DHT22;12356;49.386;8.688;2022-07-29T14:23:02;26.80;41.40
24217;DHT22;12356;49.386;8.688;2022-07-29T14:25:32;26.80;38.00
24217;DHT22;12356;49.386;8.688;2022-07-29T14:28:03;26.80;40.10
24217;DHT22;12356;49.386;8.688;2022-07-29T14:30:34;26.80;38.50
24217;DHT22;12356;49.386;8.688;2022-07-29T14:33:05;26.80;39.00
24217;DHT22;12356;49.386;8.688;2022-07-29T14:35:35;26.90;36.50
24217;DHT22;12356;49.386;8.688;2022-07-29T14:38:06;26.90;36.60
24217;DHT22;12356;49.386;8.688;2022-07-29T14:40:37;26.90;35.10
24217;DHT22;12356;49.386;8.688;2022-07-29T14:43:08;26.90;35.10
24217;DHT22;12356;49.386;8.688;2022-07-29T14:45:39;26.90;36.70
24217;DHT22;12356;49.386;8.688;2022-07-29T14:48:10;26.80;37.00
24217;DHT22;12356;49.386;8.688;2022-07-29T14:50:41;26.80;36.50
24217;DHT22;12356;49.386;8.688;2022-07-29T14:53:12;26.80;37.80
24217;DHT22;12356;49.386;8.688;2022-07-29T14:55:44;26.80;35.40
24217;DHT22;12356;49.386;8.688;2022-07-29T14:58:14;26.80;37.10
24217;DHT22;12356;49.386;8.688;2022-07-29T15:00:45;26.90;35.80
24217;DHT22;12356;49.386;8.688;2022-07-29T15:03:16;26.90;36.70
24217;DHT22;12356;49.386;8.688;2022-07-29T15:05:46;26.90;37.50
24217;DHT22;12356;49.386;8.688;2022-07-29T15:08:17;26.90;37.40
24217;DHT22;12356;49.386;8.688;2022-07-29T15:10:47;27.00;37.00
24217;DHT22;12356;49.386;8.688;2022-07-29T15:13:18;27.00;36.60
24217;DHT22;12356;49.386;8.688;2022-07-29T15:15:49;27.00;38.10
24217;DHT22;12356;49.386;8.688;2022-07-29T15:18:20;27.10;36.60
24217;DHT22;12356;49.386;8.688;2022-07-29T15:20:50;27.10;35.50
24217;DHT22;12356;49.386;8.688;2022-07-29T15:23:21;27.10;36.20
24217;DHT22;12356;49.386;8.688;2022-07-29T15:25:52;27.00;37.40
24217;DHT22;12356;49.386;8.688;2022-07-29T15:28:22;27.00;37.40
24217;DHT22;12356;49.386;8.688;2022-07-29T15:30:53;27.00;35.90
24217;DHT22;12356;49.386;8.688;2022-07-29T15:33:25;27.00;36.00
24217;DHT22;12356;49.386;8.688;2022-07-29T15:35:56;27.00;34.40
24217;DHT22;12356;49.386;8.688;2022-07-29T15:38:27;27.00;35.00
24217;DHT22;12356;49.386;8.688;2022-07-29T15:40:57;27.00;33.50
24217;DHT22;12356;49.386;8.688;2022-07-29T15:43:28;26.90;34.70
24217;DHT22;12356;49.386;8.688;2022-07-29T15:45:58;27.00;36.20
24217;DHT22;12356;49.386;8.688;2022-07-29T15:48:48;27.00;33.70
24217;DHT22;12356;49.386;8.688;2022-07-29T15:51:19;27.00;33.80
24217;DHT22;12356;49.386;8.688;2022-07-29T15:53:49;27.00;34.40
24217;DHT22;12356;49.386;8.688;2022-07-29T15:56:20;27.10;34.50
24217;DHT22;12356;49.386;8.688;2022-07-29T15:58:51;27.10;34.70
24217;DHT22;12356;49.386;8.688;2022-07-29T16:01:22;27.10;34.10
24217;DHT22;12356;49.386;8.688;2022-07-29T16:03:53;27.20;35.30
24217;DHT22;12356;49.386;8.688;2022-07-29T16:06:24;27.20;33.60
24217;DHT22;12356;49.386;8.688;2022-07-29T16:08:54;27.30;31.70
24217;DHT22;12356;49.386;8.688;2022-07-29T16:11:25;27.30;32.60
24217;DHT22;12356;49.386;8.688;2022-07-29T16:13:57;27.30;33.00
24217;DHT22;12356;49.386;8.688;2022-07-29T16:16:28;27.30;34.00
24217;DHT22;12356;49.386;8.688;2022-07-29T16:18:58;27.20;32.10
24217;DHT22;12356;49.386;8.688;2022-07-29T16:21:29;27.20;32.50
24217;DHT22;12356;49.386;8.688;2022-07-29T16:24:01;27.20;32.10
24217;DHT22;12356;49.386;8.688;2022-07-29T16:26:33;27.20;33.50
24217;DHT22;12356;49.386;8.688;2022-07-29T16:29:04;27.20;32.20
24217;DHT22;12356;49.386;8.688;2022-07-29T16:31:35;27.10;31.60
24217;DHT22;12356;49.386;8.688;2022-07-29T16:34:05;27.10;32.60